KODO

Odessa-Schlemeyer Field Airport

Odessa, Texas, USA
METAR KODO 230853Z AUTO 16006KT 1/2SM FG VV002 12/12 A3015 RMK AO2 SLP181 T01220117 58001
Observed Flight Rules
Oct-23 @ 08:53 UTC (46 minutes ago) Instrument Flight Rules
Wind Visibility Clouds Conditions
160° at 6 knots 1/2 miles
  • Vertical visibility at 200' AGL
  • Fog
Temperatures Readings
Current 12°C / 54°F
Dewpoint 12°C / 54°F
Humidity 100%
Altimeter 30.15" Hg
Pressure 1018.1 hPa
Elevation 902
METAR KODO 230853Z AUTO 16006KT 1/2SM FG VV002 12/12 A3015 RMK AO2 SLP181 T01220117 58001
Observed Flight Rules
Oct-23 @ 08:53 UTC
(46 minutes ago)
LIFR
Wind Visibility
160° at 6 knots 1/2 miles
Clouds
  • Vertical visibility at 200' AGL
Conditions
  • Fog
Temperature Dewpoint
12°C / 54°F 12°C / 54°F
Humidity Altimeter Pressure
100% 30.15" Hg 1018.1 hPa